Time;durP1;ratioP1;P1;durP2;ratioP2;P2;SDS_P1;SDS_P2;PMS_P1;PMS_P2;Temp;Humidity;BMP_temperature;BMP_pressure;BME280_temperature;BME280_humidity;BME280_pressure;Samples;Min_cycle;Max_cycle;Signal;HPM_P1;HPM_P2
2021/03/18 00:01:39;;;;;;;0.20;0.20;;;7.90;99.90;;;;;;4996141;28;20180;-77
2021/03/18 00:04:07;;;;;;;0.20;0.20;;;7.60;99.90;;;;;;4995914;28;20637;-76
2021/03/18 00:06:33;;;;;;;0.20;0.20;;;7.50;99.90;;;;;;4995842;28;20213;-77
2021/03/18 00:09:01;;;;;;;8.77;1.10;;;7.40;99.90;;;;;;4995936;28;20166;-79
2021/03/18 00:11:28;;;;;;;0.10;0.10;;;7.60;99.90;;;;;;4978158;28;20207;-77
2021/03/18 00:13:53;;;;;;;0.20;0.20;;;7.60;99.90;;;;;;4995565;28;20169;-76
2021/03/18 00:16:19;;;;;;;2.72;1.35;;;7.70;99.90;;;;;;4995493;28;20165;-76
2021/03/18 00:18:48;;;;;;;0.20;0.20;;;7.60;99.90;;;;;;4995601;28;20208;-78
2021/03/18 00:21:13;;;;;;;0.20;0.20;;;7.50;99.90;;;;;;4995409;28;20179;-78
2021/03/18 00:23:39;;;;;;;0.20;0.20;;;7.40;99.90;;;;;;4995033;28;20169;-78
2021/03/18 00:26:05;;;;;;;0.20;0.20;;;7.40;99.90;;;;;;4995121;28;20291;-75
2021/03/18 00:28:33;;;;;;;0.20;0.20;;;7.50;99.90;;;;;;4995146;28;20691;-78
2021/03/18 00:30:59;;;;;;;1.20;0.30;;;7.50;99.90;;;;;;4995091;28;20191;-78
2021/03/18 00:33:25;;;;;;;0.20;0.20;;;7.40;99.90;;;;;;4977699;28;20172;-78
2021/03/18 00:35:52;;;;;;;0.60;0.60;;;7.40;99.90;;;;;;4994986;28;20552;-76
2021/03/18 00:38:18;;;;;;;0.20;0.20;;;7.50;99.90;;;;;;4995043;28;20185;-78
2021/03/18 00:40:50;;;;;;;0.40;0.40;;;7.60;99.90;;;;;;4994900;28;20559;-75
2021/03/18 00:43:25;;;;;;;0.20;0.20;;;7.50;99.90;;;;;;4994851;28;20515;-76
2021/03/18 00:45:51;;;;;;;0.25;0.25;;;7.40;99.90;;;;;;4994689;28;20212;-77
2021/03/18 00:48:21;;;;;;;0.20;0.20;;;7.50;99.90;;;;;;4994620;28;20197;-75
2021/03/18 00:50:50;;;;;;;10.43;0.65;;;7.50;99.90;;;;;;4994705;28;20177;-75
2021/03/18 00:53:20;;;;;;;0.40;0.40;;;7.30;99.90;;;;;;4994975;28;20149;-75
2021/03/18 00:55:45;;;;;;;0.20;0.20;;;7.30;99.90;;;;;;4994591;28;20691;-76
2021/03/18 00:58:11;;;;;;;0.38;0.38;;;7.20;99.90;;;;;;4977046;28;20197;-77
2021/03/18 01:00:46;;;;;;;0.20;0.20;;;7.30;99.90;;;;;;4994464;28;20684;-76
2021/03/18 01:03:12;;;;;;;4.60;2.20;;;7.10;99.90;;;;;;4994577;28;20273;-76
2021/03/18 01:05:40;;;;;;;0.57;0.57;;;7.20;99.90;;;;;;4994301;28;20201;-76
2021/03/18 01:08:07;;;;;;;0.20;0.20;;;7.30;99.90;;;;;;4994382;28;20197;-78
2021/03/18 01:10:39;;;;;;;9.90;1.70;;;7.40;99.90;;;;;;4994433;28;20498;-77
2021/03/18 01:13:05;;;;;;;3.92;1.45;;;7.40;99.90;;;;;;4994419;28;20233;-78
2021/03/18 01:15:31;;;;;;;0.38;0.38;;;7.00;99.90;;;;;;4976882;28;20268;-77
2021/03/18 01:17:57;;;;;;;0.20;0.20;;;6.90;99.90;;;;;;4994237;28;20268;-76
2021/03/18 01:20:23;;;;;;;0.45;0.45;;;6.70;99.90;;;;;;4994354;28;20169;-76
2021/03/18 01:22:48;;;;;;;0.30;0.30;;;6.80;99.90;;;;;;4994295;28;20170;-77
2021/03/18 01:25:14;;;;;;;1.10;0.68;;;6.80;99.90;;;;;;4994290;28;20303;-78
2021/03/18 01:27:40;;;;;;;0.25;0.25;;;7.00;99.90;;;;;;4994263;28;20189;-78
2021/03/18 01:30:22;;;;;;;0.30;0.30;;;7.00;99.90;;;;;;4994373;28;20189;-78
2021/03/18 01:32:47;;;;;;;0.30;0.30;;;7.10;99.90;;;;;;4994342;28;20185;-77
2021/03/18 01:35:20;;;;;;;0.30;0.30;;;6.70;99.90;;;;;;4976245;28;20161;-78
2021/03/18 01:37:47;;;;;;;0.88;0.40;;;6.40;99.90;;;;;;4994461;28;20197;-78
2021/03/18 01:40:16;;;;;;;1.73;0.73;;;6.40;99.90;;;;;;4994337;28;20628;-78
2021/03/18 01:42:42;;;;;;;0.20;0.20;;;6.40;99.90;;;;;;4994138;28;20174;-78
2021/03/18 01:45:10;;;;;;;0.20;0.20;;;6.60;99.90;;;;;;4993849;28;20247;-78
2021/03/18 01:47:38;;;;;;;0.35;0.35;;;6.60;99.90;;;;;;4994005;28;20648;-78
2021/03/18 01:50:08;;;;;;;0.55;0.55;;;6.30;99.90;;;;;;4993886;28;20212;-76
2021/03/18 01:52:35;;;;;;;0.40;0.40;;;6.10;99.90;;;;;;4994102;28;20519;-77
2021/03/18 01:55:01;;;;;;;0.30;0.30;;;6.20;99.90;;;;;;4993916;28;20165;-77
2021/03/18 01:57:26;;;;;;;0.20;0.20;;;6.20;99.90;;;;;;4993672;28;20192;-76
2021/03/18 01:59:53;;;;;;;0.20;0.20;;;6.10;99.90;;;;;;4994037;28;20161;-77
2021/03/18 02:02:19;;;;;;;0.50;0.50;;;6.20;99.90;;;;;;4993847;28;20157;-77
2021/03/18 02:04:45;;;;;;;0.20;0.20;;;6.40;99.90;;;;;;4994031;28;20637;-75
2021/03/18 02:07:11;;;;;;;0.73;0.73;;;6.40;99.90;;;;;;4993877;28;20208;-77
2021/03/18 02:09:36;;;;;;;0.30;0.30;;;6.30;99.90;;;;;;4993752;28;20180;-77
2021/03/18 02:12:03;;;;;;;0.20;0.20;;;6.20;99.90;;;;;;4976423;28;20170;-78
2021/03/18 02:14:29;;;;;;;0.20;0.20;;;6.30;99.90;;;;;;4993493;28;20164;-77
2021/03/18 02:16:58;;;;;;;0.22;0.22;;;6.40;99.90;;;;;;4993702;28;20185;-77
2021/03/18 02:20:09;;;;;;;0.98;0.45;;;6.50;99.90;;;;;;4994226;28;20177;-77
2021/03/18 02:23:24;;;;;;;0.20;0.20;;;6.50;99.90;;;;;;4993655;28;20197;-77
2021/03/18 02:26:22;;;;;;;0.20;0.20;;;6.50;99.90;;;;;;4952274;28;20540;-78
2021/03/18 02:29:13;;;;;;;0.20;0.20;;;6.50;99.90;;;;;;4993458;28;20169;-77
2021/03/18 02:31:47;;;;;;;0.20;0.20;;;6.40;99.90;;;;;;4976114;28;20540;-77
2021/03/18 02:34:28;;;;;;;0.30;0.30;;;6.50;99.90;;;;;;4993618;28;20531;-76
2021/03/18 02:37:06;;;;;;;0.20;0.20;;;6.50;99.90;;;;;;4993852;28;20185;-78
2021/03/18 02:39:36;;;;;;;0.30;0.30;;;6.60;99.90;;;;;;4993494;28;20260;-77
2021/03/18 02:42:11;;;;;;;0.20;0.20;;;6.80;99.90;;;;;;4993662;28;20353;-77
2021/03/18 02:44:41;;;;;;;0.20;0.20;;;6.80;99.90;;;;;;4993631;28;20667;-76
2021/03/18 02:47:09;;;;;;;0.30;0.30;;;6.60;99.90;;;;;;4979547;28;20221;-77
2021/03/18 02:49:42;;;;;;;0.20;0.20;;;6.50;99.90;;;;;;4997287;28;20221;-77
2021/03/18 02:52:09;;;;;;;0.20;0.20;;;6.60;99.90;;;;;;4997306;28;20308;-77
2021/03/18 02:54:37;;;;;;;0.20;0.20;;;6.70;99.90;;;;;;4979957;28;20630;-77
2021/03/18 02:57:05;;;;;;;6.07;1.60;;;6.60;99.90;;;;;;4997184;28;20189;-77
2021/03/18 02:59:38;;;;;;;0.20;0.20;;;6.70;99.90;;;;;;4997109;28;20201;-76
2021/03/18 03:02:09;;;;;;;0.52;0.52;;;6.70;99.90;;;;;;4997231;28;20188;-78
2021/03/18 03:04:37;;;;;;;0.70;0.40;;;6.70;99.90;;;;;;4997144;28;20231;-77
2021/03/18 03:07:05;;;;;;;0.20;0.20;;;6.70;99.90;;;;;;4996878;28;20213;-77
2021/03/18 03:09:32;;;;;;;0.20;0.20;;;6.80;99.90;;;;;;4996959;28;20167;-77
2021/03/18 03:11:59;;;;;;;0.20;0.20;;;6.90;99.90;;;;;;4997021;28;20179;-77
2021/03/18 03:14:25;;;;;;;0.30;0.30;;;6.70;99.90;;;;;;4996831;28;20633;-77
2021/03/18 03:16:51;;;;;;;2.75;1.20;;;6.90;99.90;;;;;;4979235;28;20189;-77
2021/03/18 03:19:17;;;;;;;0.20;0.20;;;6.80;99.90;;;;;;4997041;28;20265;-76
2021/03/18 03:21:44;;;;;;;7.38;1.48;;;6.80;99.90;;;;;;4996806;28;20593;-77
2021/03/18 03:24:12;;;;;;;0.88;0.70;;;6.70;99.90;;;;;;4997248;28;20545;-78
2021/03/18 03:26:39;;;;;;;0.30;0.30;;;6.60;99.90;;;;;;4996659;28;20208;-77
2021/03/18 03:29:05;;;;;;;0.20;0.20;;;6.50;99.90;;;;;;4996911;28;20176;-77
2021/03/18 03:31:31;;;;;;;0.32;0.32;;;6.60;99.90;;;;;;4996783;28;20173;-78
2021/03/18 03:33:57;;;;;;;1.23;0.45;;;6.60;99.90;;;;;;4979387;28;20299;-78
2021/03/18 03:36:23;;;;;;;0.20;0.20;;;6.80;99.90;;;;;;4996409;28;20247;-78
2021/03/18 03:38:50;;;;;;;0.28;0.28;;;6.80;99.90;;;;;;4996532;28;20157;-77
2021/03/18 03:41:15;;;;;;;0.30;0.30;;;6.80;99.90;;;;;;4996674;28;20177;-78
2021/03/18 03:43:41;;;;;;;0.20;0.20;;;6.90;99.90;;;;;;4996617;28;20617;-78
2021/03/18 03:46:07;;;;;;;0.20;0.20;;;7.20;99.90;;;;;;4996744;28;20209;-78
2021/03/18 03:48:34;;;;;;;0.88;0.82;;;7.00;99.90;;;;;;4996470;28;20185;-78
2021/03/18 03:51:01;;;;;;;0.20;0.20;;;7.10;99.90;;;;;;4978869;28;20187;-78
2021/03/18 03:53:39;;;;;;;1.15;1.15;;;7.10;99.90;;;;;;4996209;28;20161;-78
2021/03/18 03:56:12;;;;;;;0.75;0.75;;;7.00;99.90;;;;;;4995945;28;20664;-77
2021/03/18 03:58:56;;;;;;;0.73;0.73;;;7.10;99.90;;;;;;4995445;28;20172;-77
2021/03/18 04:01:44;;;;;;;0.20;0.20;;;7.10;99.90;;;;;;4996133;28;20170;-78
2021/03/18 04:04:14;;;;;;;0.20;0.20;;;6.90;99.90;;;;;;4995790;28;20177;-76
2021/03/18 04:06:42;;;;;;;0.30;0.30;;;7.30;99.90;;;;;;4995555;28;20216;-78
2021/03/18 04:09:11;;;;;;;0.50;0.50;;;7.50;99.90;;;;;;4995637;28;20243;-77
2021/03/18 04:11:39;;;;;;;0.20;0.20;;;7.80;99.90;;;;;;4995660;28;20173;-77
2021/03/18 04:14:07;;;;;;;0.20;0.20;;;7.70;99.90;;;;;;4995577;28;20166;-78
2021/03/18 04:16:36;;;;;;;2.40;0.68;;;7.60;99.90;;;;;;4995369;28;20193;-78
2021/03/18 04:19:02;;;;;;;0.20;0.20;;;7.60;99.90;;;;;;4995774;28;20174;-78
2021/03/18 04:21:33;;;;;;;7.47;2.35;;;7.60;99.90;;;;;;4995612;28;20177;-78
2021/03/18 04:24:03;;;;;;;4.35;0.73;;;7.40;99.90;;;;;;4995272;28;20220;-77
2021/03/18 04:26:31;;;;;;;6.45;1.98;;;7.40;99.90;;;;;;4994981;28;20209;-77
2021/03/18 04:28:57;;;;;;;2.58;1.40;;;7.40;99.90;;;;;;4977622;28;20173;-77
2021/03/18 04:31:23;;;;;;;2.65;1.20;;;7.20;99.90;;;;;;4995073;28;20169;-78
2021/03/18 04:33:49;;;;;;;0.65;0.65;;;7.40;99.90;;;;;;4995026;28;20157;-77
2021/03/18 04:36:15;;;;;;;0.57;0.57;;;7.60;99.90;;;;;;4977960;28;20231;-78
2021/03/18 04:38:41;;;;;;;0.30;0.30;;;7.70;99.90;;;;;;4995302;28;20184;-78
2021/03/18 04:41:08;;;;;;;0.20;0.20;;;7.70;99.90;;;;;;4994966;28;20172;-78
2021/03/18 04:43:37;;;;;;;0.57;0.30;;;7.80;99.90;;;;;;4995013;28;20158;-78
2021/03/18 04:46:07;;;;;;;0.63;0.63;;;7.70;99.90;;;;;;4994792;28;20197;-77
2021/03/18 04:48:34;;;;;;;0.25;0.25;;;7.70;99.90;;;;;;4994940;28;20633;-77
2021/03/18 04:51:00;;;;;;;0.20;0.20;;;7.50;99.90;;;;;;4994954;28;20164;-78
2021/03/18 04:53:26;;;;;;;0.38;0.38;;;7.40;99.90;;;;;;4994457;28;20166;-77
2021/03/18 04:55:51;;;;;;;0.30;0.30;;;7.50;99.90;;;;;;4994789;28;20168;-77
2021/03/18 04:58:20;;;;;;;12.43;1.10;;;7.50;99.90;;;;;;4994781;28;20199;-75
2021/03/18 05:00:47;;;;;;;2.22;1.70;;;7.20;99.90;;;;;;4995006;28;20158;-77
2021/03/18 05:03:14;;;;;;;0.30;0.30;;;7.40;99.90;;;;;;4995052;28;20220;-75
2021/03/18 05:05:39;;;;;;;0.20;0.20;;;7.60;99.90;;;;;;4994815;28;20606;-77
2021/03/18 05:08:06;;;;;;;0.32;0.30;;;7.70;99.90;;;;;;4994449;28;20193;-77
2021/03/18 05:10:40;;;;;;;1.27;0.55;;;7.90;99.90;;;;;;4994165;28;20644;-78
2021/03/18 05:13:08;;;;;;;0.30;0.30;;;7.60;99.90;;;;;;4994846;28;20248;-76
2021/03/18 05:15:36;;;;;;;0.20;0.20;;;7.70;99.90;;;;;;4994685;28;20187;-77
2021/03/18 05:18:03;;;;;;;0.22;0.22;;;7.50;99.90;;;;;;4994656;28;20228;-77
2021/03/18 05:20:31;;;;;;;0.63;0.63;;;7.20;99.90;;;;;;4994542;28;20192;-76
2021/03/18 05:22:56;;;;;;;0.22;0.22;;;7.20;99.90;;;;;;4994539;28;20621;-77
2021/03/18 05:25:27;;;;;;;0.20;0.20;;;7.00;99.90;;;;;;4994242;28;20254;-77
2021/03/18 05:27:53;;;;;;;0.20;0.20;;;6.70;99.90;;;;;;4993940;28;20185;-78
2021/03/18 05:30:19;;;;;;;1.00;0.90;;;6.40;99.90;;;;;;4994347;28;20153;-76
2021/03/18 05:32:45;;;;;;;0.22;0.22;;;6.30;99.90;;;;;;4976615;28;20177;-78
2021/03/18 05:35:12;;;;;;;0.50;0.50;;;6.20;99.90;;;;;;4993975;28;20574;-79
2021/03/18 05:37:39;;;;;;;0.20;0.20;;;6.60;99.90;;;;;;4993860;28;20571;-78
2021/03/18 05:40:08;;;;;;;0.20;0.20;;;6.60;99.90;;;;;;4994062;28;20158;-77
2021/03/18 05:42:34;;;;;;;0.20;0.20;;;6.90;99.90;;;;;;4993849;28;20208;-78
2021/03/18 05:45:01;;;;;;;0.40;0.40;;;6.80;99.90;;;;;;4993954;28;20200;-78
2021/03/18 05:47:30;;;;;;;0.45;0.35;;;7.00;99.90;;;;;;4993563;28;20212;-78
2021/03/18 05:49:58;;;;;;;0.30;0.30;;;7.10;99.90;;;;;;4993775;28;20231;-76
2021/03/18 05:52:30;;;;;;;0.20;0.20;;;7.20;99.90;;;;;;4993799;28;20173;-77
2021/03/18 05:54:57;;;;;;;0.40;0.40;;;7.20;99.90;;;;;;4976897;28;20169;-77
2021/03/18 05:57:24;;;;;;;0.50;0.50;;;7.00;99.90;;;;;;4993817;28;20244;-78
2021/03/18 05:59:50;;;;;;;0.65;0.30;;;6.80;99.90;;;;;;4993757;28;20528;-77
2021/03/18 06:02:16;;;;;;;0.20;0.20;;;6.80;99.90;;;;;;4993805;28;20589;-77
2021/03/18 06:04:43;;;;;;;0.40;0.40;;;6.80;99.90;;;;;;4993746;28;20170;-78
2021/03/18 06:07:09;;;;;;;0.30;0.30;;;7.10;99.90;;;;;;4993536;28;20228;-77
2021/03/18 06:09:35;;;;;;;0.35;0.35;;;6.80;99.90;;;;;;4993527;28;20633;-77
2021/03/18 06:12:01;;;;;;;0.20;0.20;;;6.70;99.90;;;;;;4975993;28;20184;-77
2021/03/18 06:14:27;;;;;;;0.30;0.30;;;6.80;99.90;;;;;;4993391;28;20169;-77
2021/03/18 06:16:54;;;;;;;0.20;0.20;;;6.90;99.90;;;;;;4993633;28;20547;-79
2021/03/18 06:19:20;;;;;;;0.25;0.25;;;7.10;99.90;;;;;;4993777;28;20178;-78
2021/03/18 06:21:57;;;;;;;0.20;0.20;;;7.20;99.90;;;;;;4997313;28;20720;-79
2021/03/18 06:24:28;;;;;;;0.43;0.43;;;7.50;99.90;;;;;;4997985;28;20176;-77
2021/03/18 06:26:54;;;;;;;0.20;0.20;;;7.30;99.90;;;;;;4997466;28;20212;-78
2021/03/18 06:29:34;;;;;;;0.80;0.80;;;7.50;99.90;;;;;;4997231;28;20197;-78
2021/03/18 06:32:12;;;;;;;0.35;0.35;;;7.50;99.90;;;;;;4997166;28;20789;-78
2021/03/18 06:34:47;;;;;;;0.55;0.55;;;7.50;99.90;;;;;;4979571;28;20161;-77
2021/03/18 06:37:42;;;;;;;0.85;0.85;;;7.70;99.90;;;;;;4996987;28;20187;-77
2021/03/18 06:40:14;;;;;;;0.20;0.20;;;7.70;99.90;;;;;;4997237;28;20164;-77
2021/03/18 06:42:53;;;;;;;6.07;0.63;;;7.70;99.90;;;;;;4996752;28;20244;-76
2021/03/18 06:45:20;;;;;;;0.45;0.45;;;7.70;99.90;;;;;;4978835;28;20173;-76
2021/03/18 06:47:51;;;;;;;4.20;0.50;;;7.80;99.90;;;;;;4996751;28;20902;-78
2021/03/18 06:50:20;;;;;;;0.25;0.25;;;7.90;99.90;;;;;;4996309;28;20347;-78
2021/03/18 06:52:46;;;;;;;6.85;1.05;;;7.80;99.90;;;;;;4996392;28;20577;-78
2021/03/18 06:55:24;;;;;;;0.40;0.40;;;7.80;99.90;;;;;;4996408;28;20252;-78
2021/03/18 06:57:49;;;;;;;0.30;0.30;;;7.80;99.90;;;;;;4996253;28;20188;-78
2021/03/18 07:00:34;;;;;;;0.40;0.40;;;7.80;99.90;;;;;;4996322;28;20237;-79
2021/03/18 07:03:00;;;;;;;0.47;0.47;;;7.80;99.90;;;;;;4995967;28;20173;-79
2021/03/18 07:05:25;;;;;;;0.55;0.55;;;7.60;99.90;;;;;;4996166;28;20208;-78
2021/03/18 07:07:51;;;;;;;0.20;0.20;;;7.70;99.90;;;;;;4996163;28;20189;-77
2021/03/18 07:10:31;;;;;;;2.17;1.15;;;8.00;99.90;;;;;;4996018;28;20158;-77
2021/03/18 07:13:14;;;;;;;0.75;0.75;;;8.10;99.90;;;;;;4978475;28;20178;-78
2021/03/18 07:15:40;;;;;;;0.20;0.20;;;8.00;99.90;;;;;;4996027;28;20729;-78
2021/03/18 07:18:05;;;;;;;2.67;1.17;;;8.10;99.90;;;;;;4995752;28;20284;-78
2021/03/18 07:20:31;;;;;;;0.20;0.20;;;7.90;99.90;;;;;;4995915;28;20167;-77
2021/03/18 07:22:57;;;;;;;0.20;0.20;;;8.10;99.90;;;;;;4995967;28;20183;-77
2021/03/18 07:25:29;;;;;;;1.02;1.00;;;8.30;99.90;;;;;;4995796;28;20629;-80
2021/03/18 07:27:59;;;;;;;0.43;0.43;;;8.50;99.90;;;;;;4995743;28;20552;-79
2021/03/18 07:30:33;;;;;;;5.00;1.45;;;8.40;99.90;;;;;;4978488;28;20181;-78
2021/03/18 07:32:59;;;;;;;2.40;0.68;;;8.50;99.90;;;;;;4994142;28;20552;-78
2021/03/18 07:35:27;;;;;;;1.55;0.93;;;8.30;99.90;;;;;;4995403;28;20161;-77
2021/03/18 07:37:53;;;;;;;0.60;0.60;;;8.50;99.90;;;;;;4995147;28;20267;-76
2021/03/18 07:40:20;;;;;;;3.72;0.95;;;8.60;99.90;;;;;;4977508;28;20610;-76
2021/03/18 07:42:49;;;;;;;0.50;0.50;;;8.60;99.90;;;;;;4995379;28;20203;-76
2021/03/18 07:45:17;;;;;;;0.68;0.60;;;8.70;99.90;;;;;;4978237;28;20169;-76
2021/03/18 07:47:45;;;;;;;0.45;0.45;;;8.30;99.90;;;;;;4995434;28;20189;-76
2021/03/18 07:50:12;;;;;;;11.05;2.67;;;8.60;99.90;;;;;;4995458;28;20221;-77
2021/03/18 07:52:42;;;;;;;2.30;0.88;;;8.90;99.90;;;;;;4995413;28;20590;-76
2021/03/18 07:55:09;;;;;;;0.60;0.60;;;8.60;99.90;;;;;;4995243;28;20200;-76
2021/03/18 07:57:50;;;;;;;0.88;0.88;;;8.50;99.90;;;;;;4994764;28;20193;-75
2021/03/18 08:00:21;;;;;;;0.40;0.40;;;8.60;99.90;;;;;;4995557;28;20184;-78
2021/03/18 08:02:47;;;;;;;19.17;0.77;;;8.80;99.90;;;;;;4995435;28;20169;-77
2021/03/18 08:05:32;;;;;;;0.65;0.65;;;9.00;99.90;;;;;;4995259;28;20320;-79
2021/03/18 08:07:58;;;;;;;6.57;1.88;;;9.00;99.90;;;;;;4995056;28;20212;-75
2021/03/18 08:10:23;;;;;;;0.50;0.50;;;9.00;99.90;;;;;;4995220;28;20238;-77
2021/03/18 08:12:57;;;;;;;0.20;0.20;;;9.20;99.90;;;;;;4995305;28;20170;-76
2021/03/18 08:15:25;;;;;;;1.00;0.52;;;9.20;99.90;;;;;;4993996;28;20632;-78
2021/03/18 08:17:52;;;;;;;0.20;0.20;;;9.30;99.90;;;;;;4979829;28;20212;-77
2021/03/18 08:20:37;;;;;;;0.70;0.70;;;9.50;99.90;;;;;;4958342;28;20181;-76
2021/03/18 08:23:25;;;;;;;26.00;0.95;;;9.50;99.90;;;;;;4973382;28;20704;-77
2021/03/18 08:25:59;;;;;;;0.60;0.45;;;9.40;99.90;;;;;;4956495;28;20292;-76
2021/03/18 08:28:45;;;;;;;4.40;0.77;;;9.30;99.90;;;;;;4974553;28;20665;-75
2021/03/18 08:31:13;;;;;;;0.50;0.50;;;9.30;99.90;;;;;;4974950;28;20173;-76
2021/03/18 08:33:51;;;;;;;0.47;0.47;;;9.20;99.90;;;;;;4979841;28;20181;-77
2021/03/18 08:36:22;;;;;;;1.75;0.95;;;9.20;99.90;;;;;;4991747;28;20165;-76
2021/03/18 08:38:49;;;;;;;8.23;0.57;;;9.20;99.90;;;;;;4990889;28;20236;-75
2021/03/18 08:41:35;;;;;;;0.90;0.70;;;9.40;99.90;;;;;;4984815;28;20182;-76
2021/03/18 08:44:15;;;;;;;0.20;0.20;;;9.70;99.90;;;;;;4980497;28;20177;-76
2021/03/18 08:46:50;;;;;;;0.68;0.68;;;10.00;99.90;;;;;;4990831;28;20212;-75
2021/03/18 08:49:23;;;;;;;0.50;0.50;;;10.30;99.90;;;;;;4991055;28;20299;-77
2021/03/18 08:51:50;;;;;;;0.50;0.50;;;10.30;99.90;;;;;;4983373;28;20288;-76
2021/03/18 08:54:38;;;;;;;0.65;0.40;;;10.50;99.90;;;;;;4986871;28;20232;-76
2021/03/18 08:57:21;;;;;;;1.05;0.95;;;10.00;99.90;;;;;;4990516;28;20547;-77
2021/03/18 08:59:53;;;;;;;0.80;0.80;;;10.00;99.90;;;;;;4994195;28;20200;-77
2021/03/18 09:02:35;;;;;;;0.47;0.47;;;10.20;99.90;;;;;;4993500;28;20219;-78
2021/03/18 09:05:11;;;;;;;0.65;0.65;;;10.20;99.90;;;;;;4993799;28;20179;-76
2021/03/18 09:07:38;;;;;;;0.75;0.75;;;10.20;99.90;;;;;;4993816;28;20212;-76
2021/03/18 09:10:10;;;;;;;1.13;1.13;;;10.10;99.90;;;;;;4994095;28;20153;-75
2021/03/18 09:12:49;;;;;;;0.57;0.57;;;10.40;99.90;;;;;;4993367;28;20165;-76
2021/03/18 09:15:22;;;;;;;1.15;1.05;;;10.30;99.90;;;;;;4983138;28;20568;-76
2021/03/18 09:17:50;;;;;;;1.25;0.75;;;10.20;99.90;;;;;;4974035;28;20201;-77
2021/03/18 09:20:19;;;;;;;0.98;0.73;;;10.20;99.90;;;;;;4973694;28;20169;-75
2021/03/18 09:22:45;;;;;;;0.45;0.45;;;10.30;99.90;;;;;;4973399;28;20523;-82
2021/03/18 09:25:12;;;;;;;1.15;0.93;;;10.10;99.90;;;;;;4973381;28;20166;-75
2021/03/18 09:27:48;;;;;;;1.60;1.30;;;10.10;99.90;;;;;;4973753;28;20210;-78
2021/03/18 09:30:19;;;;;;;1.70;1.60;;;10.20;99.90;;;;;;4960873;28;20173;-76
2021/03/18 09:32:44;;;;;;;3.20;1.05;;;10.10;99.90;;;;;;4962187;28;20615;-75
2021/03/18 09:35:12;;;;;;;0.75;0.75;;;10.00;99.90;;;;;;4973976;28;20177;-75
2021/03/18 09:37:38;;;;;;;0.63;0.63;;;10.10;99.90;;;;;;4973664;28;20780;-76
2021/03/18 09:40:06;;;;;;;1.10;1.08;;;9.90;99.90;;;;;;4956465;28;20166;-77
2021/03/18 09:42:32;;;;;;;1.35;0.65;;;10.10;99.90;;;;;;4973947;28;20190;-77
2021/03/18 09:44:57;;;;;;;0.55;0.55;;;9.90;99.90;;;;;;4978675;28;20185;-77
2021/03/18 09:47:23;;;;;;;2.25;0.95;;;10.00;99.90;;;;;;4992873;28;20205;-77
2021/03/18 09:49:52;;;;;;;2.83;1.02;;;10.40;99.90;;;;;;4992993;28;20213;-77
2021/03/18 09:52:25;;;;;;;0.43;0.43;;;10.40;99.90;;;;;;4966042;28;20218;-77
2021/03/18 09:54:53;;;;;;;1.80;1.17;;;10.50;99.90;;;;;;4960647;28;20626;-77
2021/03/18 09:57:19;;;;;;;0.82;0.82;;;10.70;99.90;;;;;;4972561;28;20206;-76
2021/03/18 09:59:50;;;;;;;0.55;0.55;;;10.40;99.90;;;;;;4973771;28;20264;-76
2021/03/18 10:02:17;;;;;;;1.27;1.15;;;10.60;99.90;;;;;;4973849;28;20177;-76
2021/03/18 10:04:44;;;;;;;1.05;1.05;;;10.70;99.90;;;;;;4970948;28;20181;-75
2021/03/18 10:07:11;;;;;;;6.28;1.85;;;10.50;99.90;;;;;;4971608;28;20245;-77
2021/03/18 10:09:42;;;;;;;1.33;1.23;;;10.60;99.90;;;;;;4972643;28;20170;-75
2021/03/18 10:12:09;;;;;;;0.65;0.65;;;10.50;99.90;;;;;;4971310;28;20301;-76
2021/03/18 10:14:44;;;;;;;0.80;0.80;;;10.30;99.90;;;;;;4973036;28;20637;-78
2021/03/18 10:17:12;;;;;;;1.05;1.05;;;10.50;99.90;;;;;;4992001;28;20272;-79
2021/03/18 10:19:49;;;;;;;0.63;0.63;;;10.50;99.90;;;;;;4991097;28;20177;-77
2021/03/18 10:22:15;;;;;;;4.13;2.00;;;10.30;99.90;;;;;;4991651;28;20212;-77
2021/03/18 10:24:40;;;;;;;1.30;1.30;;;10.30;99.90;;;;;;4991589;28;20212;-77
2021/03/18 10:27:10;;;;;;;0.50;0.50;;;10.30;99.90;;;;;;4991390;28;20688;-77
2021/03/18 10:29:36;;;;;;;1.50;1.40;;;10.40;99.90;;;;;;4985333;28;20177;-77
2021/03/18 10:32:13;;;;;;;13.45;1.05;;;10.80;99.90;;;;;;4971975;28;20254;-75
2021/03/18 10:34:40;;;;;;;0.75;0.75;;;10.60;99.90;;;;;;4970514;28;20236;-76
2021/03/18 10:37:31;;;;;;;0.70;0.70;;;10.60;99.90;;;;;;4970690;28;20202;-77
2021/03/18 10:40:10;;;;;;;0.65;0.65;;;10.40;99.90;;;;;;4963733;28;20178;-75
2021/03/18 10:42:37;;;;;;;1.40;1.30;;;10.40;99.90;;;;;;4971569;28;20575;-77
2021/03/18 10:45:25;;;;;;;0.95;0.93;;;10.50;99.90;;;;;;4978104;28;20196;-77
2021/03/18 10:47:57;;;;;;;6.28;0.82;;;10.70;99.90;;;;;;4976510;28;20206;-76
2021/03/18 10:50:26;;;;;;;0.88;0.88;;;10.60;99.90;;;;;;4971959;28;20217;-78
2021/03/18 10:52:58;;;;;;;5.75;1.58;;;10.10;99.90;;;;;;4972023;28;20170;-77
2021/03/18 10:55:25;;;;;;;2.13;1.92;;;9.90;99.90;;;;;;4971548;28;20533;-76
2021/03/18 10:58:00;;;;;;;1.20;1.15;;;10.10;99.90;;;;;;4972278;28;20204;-79
2021/03/18 11:00:28;;;;;;;2.20;1.67;;;10.20;99.90;;;;;;4970603;28;20181;-78
2021/03/18 11:03:03;;;;;;;2.38;1.95;;;10.20;99.90;;;;;;4971466;28;20169;-78
2021/03/18 11:05:31;;;;;;;11.80;2.38;;;10.30;99.90;;;;;;4971494;28;20582;-77
2021/03/18 11:07:58;;;;;;;1.15;1.15;;;10.10;99.90;;;;;;4975333;28;20205;-77
2021/03/18 11:10:29;;;;;;;6.40;1.85;;;10.00;99.90;;;;;;4975595;28;20213;-76
2021/03/18 11:12:58;;;;;;;0.50;0.50;;;9.70;99.90;;;;;;4975179;28;20174;-76
2021/03/18 11:15:24;;;;;;;3.20;1.65;;;9.90;99.90;;;;;;4963734;28;20677;-77
2021/03/18 11:18:06;;;;;;;4.95;1.65;;;10.20;99.90;;;;;;4973567;28;20284;-76
2021/03/18 11:20:37;;;;;;;2.78;1.35;;;10.10;99.90;;;;;;4973777;28;20201;-78
2021/03/18 11:23:04;;;;;;;6.20;1.40;;;10.00;99.90;;;;;;4954647;28;20186;-76
2021/03/18 11:25:30;;;;;;;1.50;0.82;;;10.10;99.90;;;;;;4972182;28;20628;-76
2021/03/18 11:27:56;;;;;;;1.42;1.33;;;10.20;99.90;;;;;;4974724;28;20202;-77
2021/03/18 11:30:32;;;;;;;8.60;2.15;;;10.20;99.90;;;;;;4975230;28;20169;-77
2021/03/18 11:33:22;;;;;;;0.65;0.65;;;10.30;99.90;;;;;;4974750;28;20180;-78
2021/03/18 11:35:51;;;;;;;1.80;1.50;;;10.60;99.90;;;;;;4974347;28;20578;-77
2021/03/18 11:38:18;;;;;;;6.47;1.65;;;10.60;99.90;;;;;;4975187;28;20560;-76
2021/03/18 11:40:45;;;;;;;2.00;1.35;;;10.60;99.90;;;;;;4975285;28;20158;-78
2021/03/18 11:43:11;;;;;;;11.93;1.17;;;10.50;99.90;;;;;;4975144;28;20169;-77
2021/03/18 11:45:37;;;;;;;0.95;0.95;;;10.50;99.90;;;;;;4984789;28;20181;-77
2021/03/18 11:48:03;;;;;;;3.30;1.77;;;10.40;99.90;;;;;;4994173;28;20271;-75
2021/03/18 11:50:29;;;;;;;0.63;0.63;;;10.50;99.90;;;;;;4994088;28;20304;-76
2021/03/18 11:52:55;;;;;;;0.98;0.98;;;10.50;99.90;;;;;;4975195;28;20264;-76
2021/03/18 11:55:22;;;;;;;2.30;0.63;;;10.70;99.90;;;;;;4973984;28;20549;-76
2021/03/18 11:57:47;;;;;;;8.30;2.33;;;11.00;99.90;;;;;;4974782;28;20197;-76
2021/03/18 12:00:14;;;;;;;5.55;2.67;;;11.00;99.90;;;;;;4974556;28;20472;-77
2021/03/18 12:02:39;;;;;;;0.50;0.50;;;11.20;99.90;;;;;;4973468;28;20216;-76
2021/03/18 12:05:06;;;;;;;1.70;1.60;;;11.10;99.90;;;;;;4973984;28;20236;-77
2021/03/18 12:07:32;;;;;;;1.30;1.00;;;11.20;99.90;;;;;;4974134;28;20577;-80
2021/03/18 12:09:58;;;;;;;15.05;1.13;;;11.20;99.90;;;;;;4973079;28;20166;-77
2021/03/18 12:12:24;;;;;;;8.30;1.08;;;11.10;99.90;;;;;;4973777;28;20305;-77
2021/03/18 12:14:49;;;;;;;1.33;1.33;;;11.30;99.90;;;;;;4978171;28;20164;-77
2021/03/18 12:17:15;;;;;;;1.55;0.98;;;11.10;99.90;;;;;;4983718;28;20244;-77
2021/03/18 12:19:41;;;;;;;6.70;1.85;;;10.90;99.90;;;;;;4974427;28;20173;-77
2021/03/18 12:22:06;;;;;;;1.45;1.15;;;10.80;99.90;;;;;;4973999;28;20216;-77
2021/03/18 12:24:33;;;;;;;1.45;1.35;;;10.80;99.90;;;;;;4974662;28;20177;-84
2021/03/18 12:26:59;;;;;;;0.85;0.85;;;10.90;99.90;;;;;;4974366;28;20760;-75
2021/03/18 12:29:24;;;;;;;2.50;1.77;;;10.90;99.90;;;;;;4974309;28;20261;-77
2021/03/18 12:31:50;;;;;;;3.92;0.98;;;10.80;99.90;;;;;;4974029;28;20177;-77
2021/03/18 12:34:16;;;;;;;1.65;1.55;;;10.90;99.90;;;;;;4973765;28;20261;-76
2021/03/18 12:36:42;;;;;;;0.45;0.45;;;10.80;99.90;;;;;;4973003;28;20189;-77
2021/03/18 12:39:08;;;;;;;2.28;1.38;;;10.80;99.90;;;;;;4973309;28;20162;-77
2021/03/18 12:41:34;;;;;;;2.15;2.00;;;10.50;99.90;;;;;;4973884;28;20674;-79
2021/03/18 12:44:00;;;;;;;3.50;1.10;;;10.30;99.90;;;;;;4974115;28;20601;-77
2021/03/18 12:46:27;;;;;;;0.77;0.77;;;10.20;99.90;;;;;;4974156;28;20224;-78
2021/03/18 12:48:53;;;;;;;4.57;2.67;;;10.00;99.90;;;;;;4972332;28;20206;-77
2021/03/18 12:51:18;;;;;;;3.92;1.35;;;10.20;99.90;;;;;;4972372;28;20174;-77
2021/03/18 12:53:44;;;;;;;0.73;0.73;;;10.10;99.90;;;;;;4972030;28;20653;-78
2021/03/18 12:56:10;;;;;;;1.75;1.27;;;10.30;99.90;;;;;;4971934;28;20174;-77
2021/03/18 12:58:36;;;;;;;1.48;1.38;;;10.50;99.90;;;;;;4973888;28;20177;-79
2021/03/18 13:01:02;;;;;;;0.68;0.68;;;10.70;99.90;;;;;;4974258;28;20245;-79
2021/03/18 13:03:27;;;;;;;1.58;1.40;;;10.70;99.90;;;;;;4974979;28;20772;-81
2021/03/18 13:05:53;;;;;;;2.90;2.08;;;10.70;99.90;;;;;;4972927;28;20296;-79